Aeroporto :
LOGIN :

Iscrizione | Disclaimer

   EN    FR    IT 

 










Sommario :    VFR   VFR Marginale   IFR   IFR Intensivo   IFR Molto Intensivo
Visibilità : 
Base nubi : 
>= 8 km
>= 3000ft
5 / 8 km
1000 / 3000 ft
1500m / 5 km
500 / 1000 ft
800 / 1500m
200 / 500 ft
< 800m
< 200 ft
Simboli :   Temporali  Nebbia  Neve Forte  Precipitazioni Forti  Vento > 20 kt
SIGMETs :   Varie  Temporali  Ghiacco  Turbolenza  Onda orograficha  Ceneri Vulcaniche






- Altitudine del aeroporto : 101 ft
- Codice IATA : HAD


ESMT - Halmstad

ULTIMO METAR :
  • 172350Z AUTO 18008KT 7000 -DZ SCT009/// OVC010/// 06/04 Q1009 RESG

METARs OBSOLETI :
  • 172320Z AUTO 17008KT 9000 -DZ OVC010/// 05/04 Q1009 REUP RESHUP REFZRA
  • 172250Z AUTO 13008KT 9999 OVC012/// 06/04 Q1009 REUP
  • 172220Z AUTO 14006KT 8000 UP OVC012/// 06/03 Q1009
  • 172150Z AUTO 14007KT 9999 FEW012/// SCT014/// BKN019/// 06/03 Q1009
  • 172120Z AUTO 16008KT 9999 OVC023/// 05/03 Q1010

Previsioni scadute.



MetMap, La meteo Aeronautica in un colpo d'occhio ! - Copyright ORBIFLY Dicembre 2007 - Disclaimer

ORBIFLY MET'MAP TEAM :

Programmazione e sviluppo : Alexandra Zaïnal
Concezione : Baudouin d'Aumeries
Aiuto per la programmazione : Marc-Olivier Méhu
Supporto tecnico e logistico : Manuel Goepfert
Aiuto per la traduzione : Arnaldo La Scala

Contatto : metmap@orbifly.com




FONTI E CREDITI :

   NOAA